logo dgac
Miércoles 22 de Mayo del 2019
Buscar por aerodromo o helipuerto
Ingrese nombre de aeródromo, localidad o designador OACI:
TAF: TAF SCAT 220448Z 2206/2306 12005KT CAVOK TN08/2210Z TX19/2217Z BECMG 2210/2212 19005KT BECMG 2216/2218 23012KT BECMG 2300/2302 20004KT
TAF del 22/05/2019 a las 04:48 UTC
Período de validez: desde el 22 a las 06:00 UTC hasta el 23 a las 06:00 UTC
Viento: dirección 120 grados, velocidad 5 nudos
Visibilidad: 10 km o más,
    sin nubes bajo los 5.000 pies o bajo del MSA (Mínimo de Seguridad del Aeródromo),
    sin cumulonimbus, y sin fenómenos de tiempo significativo en el aeródromo o alrededores
Temperatura mínima: 8ºC el 22 a las 10:00 UTC
Temperatura máxima: 19ºC el 22 a las 17:00 UTC
Se espera un cambio entre las 10:00 UTC del 22 y las 12:00 UTC del 22, :
Viento: dirección 190 grados, velocidad 5 nudos
Se espera un cambio entre las 16:00 UTC del 22 y las 18:00 UTC del 22, :
Viento: dirección 230 grados, velocidad 12 nudos
Se espera un cambio entre las 00:00 UTC del 23 y las 02:00 UTC del 23, :
Viento: dirección 200 grados, velocidad 4 nudos